logo
Rechercher aéroport 
image banner adimage banner adimage banner ad
image banner ad

EPLY - Leczyca

Situé à Leczyca, Poland

ICAO - EPLY, IATA -

Données fournies par Airmate  

Information générale

Coordonnées: N52°0'18" E19°8'38"
Élévation : 404 feet MSL.
Variation magnétique : 6.0000° East
Voir autres Aéroports à Lodz

Données opérationnelles

Special qualification required
Heure actuelle UTC:
Heure actuelle locale:
Météo
TAF: TAF EPLY 151700Z 1518/1606 VRB02KT CAVOK
Voir NOTAMs / SUP AIP / TFR affectant cet aéroport [VIEW]
Fréquences de communication: [VIEW]

Pistes:

Identifiant RWYQFULongueur (ft)Largeur (ft)SurfaceLDA (ft)
10104°8202197CONC+ASPH8202
28284°8202197CONC+ASPH8202

Coordonnées de l'aéroport

Adresse: Leczyca Poland

Vue satellite de EPLY